Mckinley Sea — WDE5024 — position and weather

sailwx.info

Track history (hours):
 
Tides and Currents Weather Stations Pressure Air Temp Water Temp Dewpoint Dewpoint Depression Visibility Wind Speed Wind Dir Waves Ship Positions

Mckinley Sea

Owner: Kirby Offshore Marine, LLC, Staten Island, NY. More information available from US FCC via Universal Licensing System and Coast Guard Vessel Documentation Center.

Last reported at 2018-Jan-20 13:40 UTC. Time now 2018-Jan-20 21:18 UTC.
Position N 42°14' W 070°58'.

Length 41 m; draft 6 m.

Type: . MMSI: 367360980.

Date/timePositionNaut miles runAvg speedWind from/ knotsBaromVisibWave heightAir tempDewpointWater temp
2018-Jan-20 13:40N 42°14' W 070°58'0 2.8
2018-Jan-20 13:30N 42°15' W 070°58'2 3.8
2018-Jan-20 12:58N 42°16' W 070°56'3 6.1
2018-Jan-20 12:29N 42°19' W 070°55'2 2.9
2018-Jan-20 11:48N 42°19' W 070°52'0 0.0
2018-Jan-20 11:27N 42°19' W 070°52'0 0.0
2018-Jan-20 10:48N 42°19' W 070°52'0 0.0
2018-Jan-20 10:27N 42°19' W 070°52'0 0.0
2018-Jan-20 09:57N 42°19' W 070°52'0 0.0
2018-Jan-20 09:21N 42°19' W 070°52'0 0.0
2018-Jan-20 08:56N 42°19' W 070°52'0 0.0
2018-Jan-20 08:27N 42°19' W 070°52'0 0.0
2018-Jan-20 07:56N 42°19' W 070°52'0 0.1
2018-Jan-20 07:31N 42°19' W 070°52'0 0.1
2018-Jan-20 07:00N 42°20' W 070°52'0 0.1
2018-Jan-20 06:30N 42°20' W 070°52'0 0.2
2018-Jan-20 05:59N 42°19' W 070°52'2 4.9
2018-Jan-20 05:29N 42°20' W 070°49'3 6.9
2018-Jan-20 05:00N 42°18' W 070°45'3 6.9
2018-Jan-20 04:30N 42°17' W 070°40'3 7.0
2018-Jan-20 04:01N 42°15' W 070°37'95 5.5
2018-Jan-19 10:30N 41°12' W 072°13'7 8.9
2018-Jan-19 09:42N 41°10' W 072°23'6 8.6
2018-Jan-19 09:00N 41°08' W 072°30'5 8.2
2018-Jan-19 08:25N 41°07' W 072°36'3 8.1
2018-Jan-19 08:00N 41°07' W 072°41'44 6.7
2018-Jan-19 01:20N 40°55' W 073°38'2 6.5
2018-Jan-19 01:00N 40°54' W 073°40'3 6.6
2018-Jan-19 00:30N 40°52' W 073°44'4 7.3
2018-Jan-19 00:00N 40°50' W 073°47'3 6.0
2018-Jan-18 23:30N 40°48' W 073°50'4 7.2
2018-Jan-18 23:00N 40°47' W 073°55'4 7.6
2018-Jan-18 22:30N 40°44' W 073°58'3 6.4
2018-Jan-18 22:00N 40°42' W 074°00'3 5.9
2018-Jan-18 21:30N 40°40' W 074°03'3 5.5
2018-Jan-18 21:00N 40°39' W 074°06'3 6.1
2018-Jan-18 20:30N 40°39' W 074°11'2 3.9
2018-Jan-18 19:59N 40°37' W 074°12'1 1.7
2018-Jan-18 19:30N 40°36' W 074°12'0 0.0
2018-Jan-18 19:00N 40°36' W 074°12'0 0.0
2018-Jan-18 18:27N 40°36' W 074°12'0 0.0
2018-Jan-18 17:45N 40°36' W 074°12'0 0.0
2018-Jan-18 16:03N 40°36' W 074°12'0 0.1
2018-Jan-18 15:57N 40°36' W 074°12'0 0.0
2018-Jan-18 13:51N 40°36' W 074°12'0 0.0
2018-Jan-18 03:51N 40°36' W 074°12'0 0.0
2018-Jan-18 03:12N 40°36' W 074°12'0 0.0
2018-Jan-18 02:48N 40°36' W 074°12'0 0.0
2018-Jan-18 02:30N 40°36' W 074°12'0 0.0
2018-Jan-18 01:54N 40°36' W 074°12'0 0.0
2018-Jan-18 01:21N 40°36' W 074°12'0 0.0
2018-Jan-18 00:15N 40°36' W 074°12'  
2018-Jan-11 13:57N 42°19' W 070°55'4 5.9
2018-Jan-11 13:16N 42°20' W 070°50'2 6.4
2018-Jan-11 13:00N 42°19' W 070°48'2 4.2
2018-Jan-11 12:30N 42°19' W 070°45'6 2.9
2018-Jan-11 10:31N 42°23' W 070°51'0 6.2
2018-Jan-11 10:26N 42°23' W 070°52'3 6.4
2018-Jan-11 10:00N 42°22' W 070°55'2 0.7
2018-Jan-11 06:47N 42°20' W 070°58'0 0.2
2018-Jan-11 06:30N 42°20' W 070°58'0 0.1
2018-Jan-11 05:59N 42°20' W 070°58'0 0.1
2018-Jan-11 05:30N 42°20' W 070°58'0 0.1
2018-Jan-11 04:57N 42°20' W 070°58'0 0.0
2018-Jan-11 04:30N 42°20' W 070°58'0 0.0
2018-Jan-11 03:59N 42°20' W 070°58'0 0.0
2018-Jan-11 03:25N 42°20' W 070°58'0 0.0
2018-Jan-11 03:00N 42°20' W 070°58'0 0.0
2018-Jan-11 02:30N 42°20' W 070°58'0 0.1
2018-Jan-11 01:59N 42°20' W 070°58'1 2.0
2018-Jan-11 01:30N 42°21' W 070°56'3 6.1
2018-Jan-11 01:00N 42°23' W 070°53'3 6.6
2018-Jan-11 00:29N 42°23' W 070°49'3 6.8
2018-Jan-11 00:00N 42°21' W 070°45'4 7.0
2018-Jan-10 23:30N 42°18' W 070°42'3 6.9
2018-Jan-10 23:00N 42°16' W 070°38'  
Track history (hours):
 
Tides and Currents Weather Stations Pressure Air Temp Water Temp Dewpoint Dewpoint Depression Visibility Wind Speed Wind Dir Waves Ship Positions

Mckinley Sea

Owner: Kirby Offshore Marine, LLC, Staten Island, NY. More information available from US FCC via Universal Licensing System and Coast Guard Vessel Documentation Center.

Last reported at 2018-Jan-20 13:40 UTC. Time now 2018-Jan-20 21:18 UTC.
Position N 42°14' W 070°58'.

Length 41 m; draft 6 m.

Type: . MMSI: 367360980.

Date/timePositionNaut miles runAvg speedWind from/ knotsBaromVisibWave heightAir tempDewpointWater temp
2018-Jan-20 13:40N 42°14' W 070°58'0 2.8
2018-Jan-20 13:30N 42°15' W 070°58'2 3.8
2018-Jan-20 12:58N 42°16' W 070°56'3 6.1
2018-Jan-20 12:29N 42°19' W 070°55'2 2.9
2018-Jan-20 11:48N 42°19' W 070°52'0 0.0
2018-Jan-20 11:27N 42°19' W 070°52'0 0.0
2018-Jan-20 10:48N 42°19' W 070°52'0 0.0
2018-Jan-20 10:27N 42°19' W 070°52'0 0.0
2018-Jan-20 09:57N 42°19' W 070°52'0 0.0
2018-Jan-20 09:21N 42°19' W 070°52'0 0.0
2018-Jan-20 08:56N 42°19' W 070°52'0 0.0
2018-Jan-20 08:27N 42°19' W 070°52'0 0.0
2018-Jan-20 07:56N 42°19' W 070°52'0 0.1
2018-Jan-20 07:31N 42°19' W 070°52'0 0.1
2018-Jan-20 07:00N 42°20' W 070°52'0 0.1
2018-Jan-20 06:30N 42°20' W 070°52'0 0.2
2018-Jan-20 05:59N 42°19' W 070°52'2 4.9
2018-Jan-20 05:29N 42°20' W 070°49'3 6.9
2018-Jan-20 05:00N 42°18' W 070°45'3 6.9
2018-Jan-20 04:30N 42°17' W 070°40'3 7.0
2018-Jan-20 04:01N 42°15' W 070°37'95 5.5
2018-Jan-19 10:30N 41°12' W 072°13'7 8.9
2018-Jan-19 09:42N 41°10' W 072°23'6 8.6
2018-Jan-19 09:00N 41°08' W 072°30'5 8.2
2018-Jan-19 08:25N 41°07' W 072°36'3 8.1
2018-Jan-19 08:00N 41°07' W 072°41'44 6.7
2018-Jan-19 01:20N 40°55' W 073°38'2 6.5
2018-Jan-19 01:00N 40°54' W 073°40'3 6.6
2018-Jan-19 00:30N 40°52' W 073°44'4 7.3
2018-Jan-19 00:00N 40°50' W 073°47'3 6.0
2018-Jan-18 23:30N 40°48' W 073°50'4 7.2
2018-Jan-18 23:00N 40°47' W 073°55'4 7.6
2018-Jan-18 22:30N 40°44' W 073°58'3 6.4
2018-Jan-18 22:00N 40°42' W 074°00'3 5.9
2018-Jan-18 21:30N 40°40' W 074°03'3 5.5
2018-Jan-18 21:00N 40°39' W 074°06'3 6.1
2018-Jan-18 20:30N 40°39' W 074°11'2 3.9
2018-Jan-18 19:59N 40°37' W 074°12'1 1.7
2018-Jan-18 19:30N 40°36' W 074°12'0 0.0
2018-Jan-18 19:00N 40°36' W 074°12'0 0.0
2018-Jan-18 18:27N 40°36' W 074°12'0 0.0
2018-Jan-18 17:45N 40°36' W 074°12'0 0.0
2018-Jan-18 16:03N 40°36' W 074°12'0 0.1
2018-Jan-18 15:57N 40°36' W 074°12'0 0.0
2018-Jan-18 13:51N 40°36' W 074°12'0 0.0
2018-Jan-18 03:51N 40°36' W 074°12'0 0.0
2018-Jan-18 03:12N 40°36' W 074°12'0 0.0
2018-Jan-18 02:48N 40°36' W 074°12'0 0.0
2018-Jan-18 02:30N 40°36' W 074°12'0 0.0
2018-Jan-18 01:54N 40°36' W 074°12'0 0.0
2018-Jan-18 01:21N 40°36' W 074°12'0 0.0
2018-Jan-18 00:15N 40°36' W 074°12'  
2018-Jan-11 13:57N 42°19' W 070°55'4 5.9
2018-Jan-11 13:16N 42°20' W 070°50'2 6.4
2018-Jan-11 13:00N 42°19' W 070°48'2 4.2
2018-Jan-11 12:30N 42°19' W 070°45'6 2.9
2018-Jan-11 10:31N 42°23' W 070°51'0 6.2
2018-Jan-11 10:26N 42°23' W 070°52'3 6.4
2018-Jan-11 10:00N 42°22' W 070°55'2 0.7
2018-Jan-11 06:47N 42°20' W 070°58'0 0.2
2018-Jan-11 06:30N 42°20' W 070°58'0 0.1
2018-Jan-11 05:59N 42°20' W 070°58'0 0.1
2018-Jan-11 05:30N 42°20' W 070°58'0 0.1
2018-Jan-11 04:57N 42°20' W 070°58'0 0.0
2018-Jan-11 04:30N 42°20' W 070°58'0 0.0
2018-Jan-11 03:59N 42°20' W 070°58'0 0.0
2018-Jan-11 03:25N 42°20' W 070°58'0 0.0
2018-Jan-11 03:00N 42°20' W 070°58'0 0.0
2018-Jan-11 02:30N 42°20' W 070°58'0 0.1
2018-Jan-11 01:59N 42°20' W 070°58'1 2.0
2018-Jan-11 01:30N 42°21' W 070°56'3 6.1
2018-Jan-11 01:00N 42°23' W 070°53'3 6.6
2018-Jan-11 00:29N 42°23' W 070°49'3 6.8
2018-Jan-11 00:00N 42°21' W 070°45'4 7.0
2018-Jan-10 23:30N 42°18' W 070°42'3 6.9
2018-Jan-10 23:00N 42°16' W 070°38'  

Dump ship's entire track history